Time,TemperatureF,DewpointF,PressureIn,WindDirection,WindDirectionDegrees,WindSpeedMPH,WindSpeedGustMPH,Humidity,HourlyPrecipIn,Conditions,Clouds,dailyrainin,SoftwareType,DateUTC
2013-01-28 00:01:00,42.8,32.2,30.29,North,0,0.0,0.0,66,0.00,,,0.00,WUHU216HW,2013-01-28 05:01:00,
2013-01-28 00:03:00,42.8,32.2,30.29,North,0,0.0,0.0,66,0.00,,,0.00,WUHU216HW,2013-01-28 05:03:00,
2013-01-28 00:08:00,42.8,32.2,30.29,North,0,0.0,0.0,66,0.00,,,0.00,WUHU216HW,2013-01-28 05:08:00,
2013-01-28 00:29:00,42.5,32.0,30.29,North,0,0.0,0.0,66,0.00,,,0.00,WUHU216HW,2013-01-28 05:29:00,
2013-01-28 00:30:00,42.5,32.0,30.29,North,0,0.0,0.0,66,0.00,,,0.00,WUHU216HW,2013-01-28 05:30:00,
2013-01-28 00:35:00,42.5,32.0,30.29,North,0,0.0,0.0,66,0.00,,,0.00,WUHU216HW,2013-01-28 05:35:00,
2013-01-28 01:00:00,42.1,31.6,30.30,North,0,0.0,0.0,66,0.00,,,0.00,WUHU216HW,2013-01-28 06:00:00,
2013-01-28 01:05:00,42.3,31.8,30.30,North,0,0.0,0.0,66,0.00,,,0.00,WUHU216HW,2013-01-28 06:05:00,
2013-01-28 01:30:00,42.1,31.6,30.29,North,0,0.0,0.0,66,0.00,,,0.00,WUHU216HW,2013-01-28 06:30:00,
2013-01-28 01:35:00,42.1,31.6,30.29,North,0,0.0,0.0,66,0.00,,,0.00,WUHU216HW,2013-01-28 06:35:00,
2013-01-28 02:00:00,41.9,31.4,30.29,North,0,0.0,0.0,66,0.00,,,0.00,WUHU216HW,2013-01-28 07:00:00,
2013-01-28 02:05:00,41.9,31.4,30.29,North,0,0.0,0.0,66,0.00,,,0.00,WUHU216HW,2013-01-28 07:05:00,
2013-01-28 02:29:00,41.8,31.6,30.31,North,0,0.0,0.0,67,0.00,,,0.00,WUHU216HW,2013-01-28 07:29:00,
2013-01-28 02:30:00,41.8,31.6,30.31,North,0,0.0,0.0,67,0.00,,,0.00,WUHU216HW,2013-01-28 07:30:00,
2013-01-28 02:35:00,41.8,31.6,30.31,North,0,0.0,0.0,67,0.00,,,0.00,WUHU216HW,2013-01-28 07:35:00,
2013-01-28 02:59:00,42.5,32.3,30.31,North,0,0.0,0.0,67,0.00,,,0.00,WUHU216HW,2013-01-28 07:59:00,
2013-01-28 03:00:00,42.5,32.3,30.31,North,0,0.0,0.0,67,0.00,,,0.00,WUHU216HW,2013-01-28 08:00:00,
2013-01-28 03:05:00,42.5,32.3,30.31,North,0,0.0,0.0,67,0.00,,,0.00,WUHU216HW,2013-01-28 08:05:00,
2013-01-28 03:29:00,42.8,31.9,30.29,North,0,0.0,0.0,65,0.00,,,0.00,WUHU216HW,2013-01-28 08:29:00,
2013-01-28 03:30:00,42.8,31.9,30.29,North,0,0.0,0.0,65,0.00,,,0.00,WUHU216HW,2013-01-28 08:30:00,
2013-01-28 03:35:00,42.8,31.9,30.29,North,0,0.0,0.0,65,0.00,,,0.00,WUHU216HW,2013-01-28 08:35:00,
2013-01-28 04:00:00,43.0,32.1,30.27,North,0,0.0,0.0,65,0.00,,,0.00,WUHU216HW,2013-01-28 09:00:00,
2013-01-28 04:05:00,43.0,32.1,30.27,North,0,0.0,0.0,65,0.00,,,0.00,WUHU216HW,2013-01-28 09:05:00,
2013-01-28 04:30:00,43.2,32.2,30.28,North,0,0.0,0.0,65,0.00,,,0.00,WUHU216HW,2013-01-28 09:30:00,
2013-01-28 04:31:00,43.2,32.2,30.28,North,0,0.0,0.0,65,0.00,,,0.00,WUHU216HW,2013-01-28 09:31:00,
2013-01-28 04:36:00,43.2,32.2,30.28,North,0,0.0,0.0,65,0.00,,,0.00,WUHU216HW,2013-01-28 09:36:00,
2013-01-28 05:01:00,43.4,32.4,30.28,North,0,0.0,0.0,65,0.00,,,0.00,WUHU216HW,2013-01-28 10:01:00,
2013-01-28 05:06:00,43.4,32.4,30.28,North,0,0.0,0.0,65,0.00,,,0.00,WUHU216HW,2013-01-28 10:06:00,
2013-01-28 05:11:00,43.4,32.4,30.28,North,0,0.0,0.0,65,0.00,,,0.00,WUHU216HW,2013-01-28 10:11:00,
2013-01-28 05:31:00,43.2,33.0,30.29,North,0,0.0,0.0,67,0.00,,,0.00,WUHU216HW,2013-01-28 10:31:00,
2013-01-28 05:36:00,43.2,33.0,30.29,North,0,0.0,0.0,67,0.00,,,0.00,WUHU216HW,2013-01-28 10:36:00,
2013-01-28 05:59:00,43.2,33.4,30.28,North,0,0.0,0.0,68,0.00,,,0.00,WUHU216HW,2013-01-28 10:59:00,
2013-01-28 06:00:00,43.2,33.4,30.28,North,0,0.0,0.0,68,0.00,,,0.00,WUHU216HW,2013-01-28 11:00:00,
2013-01-28 06:05:00,43.2,33.4,30.28,North,0,0.0,0.0,68,0.00,,,0.00,WUHU216HW,2013-01-28 11:05:00,
2013-01-28 06:29:00,43.2,34.2,30.29,North,0,0.0,0.0,70,0.00,,,0.00,WUHU216HW,2013-01-28 11:29:00,
2013-01-28 06:30:00,43.2,34.2,30.29,North,0,0.0,0.0,70,0.00,,,0.00,WUHU216HW,2013-01-28 11:30:00,
2013-01-28 06:35:00,43.2,34.2,30.29,North,0,0.0,0.0,70,0.00,,,0.00,WUHU216HW,2013-01-28 11:35:00,
2013-01-28 07:00:00,43.2,34.2,30.30,North,0,0.0,0.0,70,0.00,,,0.00,WUHU216HW,2013-01-28 12:00:00,
2013-01-28 07:05:00,43.2,34.2,30.30,North,0,0.0,0.0,70,0.00,,,0.00,WUHU216HW,2013-01-28 12:05:00,
2013-01-28 07:30:00,43.4,34.7,30.30,North,0,0.0,0.0,71,0.00,,,0.00,WUHU216HW,2013-01-28 12:30:00,
2013-01-28 07:35:00,43.4,34.7,30.30,North,0,0.0,0.0,71,0.00,,,0.00,WUHU216HW,2013-01-28 12:35:00,
2013-01-28 08:00:00,43.6,34.8,30.30,North,0,0.0,0.0,71,0.00,,,0.00,WUHU216HW,2013-01-28 13:00:00,
2013-01-28 08:05:00,43.6,34.8,30.30,North,0,0.0,0.0,71,0.00,,,0.00,WUHU216HW,2013-01-28 13:05:00,
2013-01-28 08:29:00,43.6,35.8,30.31,North,0,0.0,0.0,74,0.00,,,0.00,WUHU216HW,2013-01-28 13:29:00,
2013-01-28 08:30:00,43.6,35.8,30.31,North,0,0.0,0.0,74,0.00,,,0.00,WUHU216HW,2013-01-28 13:30:00,
2013-01-28 08:35:00,43.6,35.8,30.31,North,0,0.0,0.0,74,0.00,,,0.00,WUHU216HW,2013-01-28 13:35:00,
2013-01-28 09:00:00,43.6,35.5,30.30,North,0,0.0,0.0,73,0.00,,,0.00,WUHU216HW,2013-01-28 14:00:00,
2013-01-28 09:05:00,43.6,35.5,30.30,North,0,0.0,0.0,73,0.00,,,0.00,WUHU216HW,2013-01-28 14:05:00,
2013-01-28 09:30:00,43.9,35.8,30.30,North,0,0.0,0.0,73,0.00,,,0.00,WUHU216HW,2013-01-28 14:30:00,
2013-01-28 09:35:00,43.9,35.8,30.30,North,0,0.0,0.0,73,0.00,,,0.00,WUHU216HW,2013-01-28 14:35:00,
2013-01-28 09:59:00,44.6,36.2,30.30,North,0,0.0,0.0,72,0.00,,,0.00,WUHU216HW,2013-01-28 14:59:00,
2013-01-28 10:00:00,44.6,36.2,30.30,North,0,0.0,0.0,72,0.00,,,0.00,WUHU216HW,2013-01-28 15:00:00,
2013-01-28 10:05:00,44.6,36.2,30.30,North,0,0.0,0.0,72,0.00,,,0.00,WUHU216HW,2013-01-28 15:05:00,
2013-01-28 10:29:00,44.8,36.6,30.30,North,0,0.0,0.0,73,0.00,,,0.00,WUHU216HW,2013-01-28 15:29:00,
2013-01-28 10:30:00,44.8,36.6,30.30,North,0,0.0,0.0,73,0.00,,,0.00,WUHU216HW,2013-01-28 15:30:00,
2013-01-28 10:35:00,44.8,36.6,30.30,North,0,0.0,0.0,73,0.00,,,0.00,WUHU216HW,2013-01-28 15:35:00,
2013-01-28 11:00:00,45.5,37.4,30.30,North,0,0.0,0.0,73,0.00,,,0.00,WUHU216HW,2013-01-28 16:00:00,
2013-01-28 11:05:00,45.5,37.4,30.30,North,0,0.0,0.0,73,0.00,,,0.00,WUHU216HW,2013-01-28 16:05:00,
2013-01-28 11:30:00,46.1,37.9,30.30,North,0,0.0,0.0,73,0.00,,,0.00,WUHU216HW,2013-01-28 16:30:00,
2013-01-28 11:35:00,46.1,37.9,30.30,North,0,0.0,0.0,73,0.00,,,0.00,WUHU216HW,2013-01-28 16:35:00,
2013-01-28 12:00:00,47.2,38.6,30.27,North,0,0.0,0.0,72,0.00,,,0.00,WUHU216HW,2013-01-28 17:00:00,
2013-01-28 12:05:00,47.2,38.6,30.27,North,0,0.0,0.0,72,0.00,,,0.00,WUHU216HW,2013-01-28 17:05:00,
2013-01-28 12:29:00,48.1,40.1,30.27,North,0,0.0,0.0,74,0.00,,,0.00,WUHU216HW,2013-01-28 17:29:00,
2013-01-28 12:30:00,48.1,40.1,30.27,North,0,0.0,0.0,74,0.00,,,0.00,WUHU216HW,2013-01-28 17:30:00,
2013-01-28 12:35:00,48.1,40.1,30.27,North,0,0.0,0.0,74,0.00,,,0.00,WUHU216HW,2013-01-28 17:35:00,
2013-01-28 13:00:00,48.2,40.2,30.25,North,0,0.0,0.0,74,0.00,,,0.00,WUHU216HW,2013-01-28 18:00:00,
2013-01-28 13:05:00,48.1,40.1,30.25,North,0,0.0,0.0,74,0.00,,,0.00,WUHU216HW,2013-01-28 18:05:00,
2013-01-28 13:30:00,49.7,41.3,30.23,North,0,0.0,0.0,73,0.00,,,0.00,WUHU216HW,2013-01-28 18:30:00,
2013-01-28 13:35:00,49.7,41.3,30.23,North,0,0.0,0.0,73,0.00,,,0.00,WUHU216HW,2013-01-28 18:35:00,
2013-01-28 13:59:00,50.8,42.4,30.21,North,0,0.0,0.0,73,0.00,,,0.00,WUHU216HW,2013-01-28 18:59:00,
2013-01-28 14:00:00,50.8,42.4,30.21,North,0,0.0,0.0,73,0.00,,,0.00,WUHU216HW,2013-01-28 19:00:00,
2013-01-28 14:05:00,50.8,42.4,30.21,North,0,0.0,0.0,73,0.00,,,0.00,WUHU216HW,2013-01-28 19:05:00,
2013-01-28 14:29:00,51.5,42.9,30.20,North,0,0.0,0.0,72,0.00,,,0.00,WUHU216HW,2013-01-28 19:29:00,
2013-01-28 14:30:00,51.5,42.9,30.20,North,0,0.0,0.0,72,0.00,,,0.00,WUHU216HW,2013-01-28 19:30:00,
2013-01-28 14:35:00,51.5,42.9,30.20,North,0,0.0,0.0,72,0.00,,,0.00,WUHU216HW,2013-01-28 19:35:00,
2013-01-28 15:00:00,51.3,42.9,30.20,North,0,0.0,0.0,73,0.00,,,0.00,WUHU216HW,2013-01-28 20:00:00,
2013-01-28 15:05:00,51.3,42.9,30.20,North,0,0.0,0.0,73,0.00,,,0.00,WUHU216HW,2013-01-28 20:05:00,
2013-01-28 15:30:00,51.1,43.5,30.20,North,0,0.0,0.0,75,0.00,,,0.00,WUHU216HW,2013-01-28 20:30:00,
2013-01-28 15:35:00,51.1,43.5,30.20,North,0,0.0,0.0,75,0.00,,,0.00,WUHU216HW,2013-01-28 20:35:00,
2013-01-28 16:00:00,51.7,44.0,30.19,North,0,0.0,0.0,75,0.00,,,0.00,WUHU216HW,2013-01-28 21:00:00,
2013-01-28 16:05:00,51.7,44.0,30.19,North,0,0.0,0.0,75,0.00,,,0.00,WUHU216HW,2013-01-28 21:05:00,
2013-01-28 16:30:00,52.2,44.2,30.19,North,0,0.0,0.0,74,0.00,,,0.00,WUHU216HW,2013-01-28 21:30:00,
2013-01-28 16:35:00,52.2,44.2,30.19,North,0,0.0,0.0,74,0.00,,,0.00,WUHU216HW,2013-01-28 21:35:00,
2013-01-28 17:00:00,52.2,44.6,30.19,North,0,0.0,0.0,75,0.00,,,0.00,WUHU216HW,2013-01-28 22:00:00,
2013-01-28 17:05:00,52.2,44.6,30.20,North,0,0.0,0.0,75,0.00,,,0.00,WUHU216HW,2013-01-28 22:05:00,
2013-01-28 17:30:00,51.8,44.2,30.19,North,0,0.0,0.0,75,0.00,,,0.00,WUHU216HW,2013-01-28 22:30:00,
2013-01-28 17:31:00,51.8,44.2,30.19,North,0,0.0,0.0,75,0.00,,,0.00,WUHU216HW,2013-01-28 22:31:00,
2013-01-28 17:36:00,51.8,44.2,30.19,North,0,0.0,0.0,75,0.00,,,0.00,WUHU216HW,2013-01-28 22:36:00,
2013-01-28 17:59:00,51.3,43.7,30.20,North,0,0.0,0.0,75,0.00,,,0.00,WUHU216HW,2013-01-28 22:59:00,
2013-01-28 18:01:00,51.3,43.7,30.20,North,0,0.0,0.0,75,0.00,,,0.00,WUHU216HW,2013-01-28 23:01:00,
2013-01-28 18:05:00,51.3,43.7,30.20,North,0,0.0,0.0,75,0.00,,,0.00,WUHU216HW,2013-01-28 23:05:00,
2013-01-28 18:29:00,49.3,42.4,30.19,North,0,0.0,0.0,77,0.00,,,0.00,WUHU216HW,2013-01-28 23:29:00,
2013-01-28 18:31:00,49.3,42.4,30.19,North,0,0.0,0.0,77,0.00,,,0.00,WUHU216HW,2013-01-28 23:31:00,
2013-01-28 18:36:00,49.3,42.4,30.19,North,0,0.0,0.0,77,0.00,,,0.00,WUHU216HW,2013-01-28 23:36:00,
2013-01-28 19:01:00,47.7,41.1,30.20,North,0,0.0,0.0,78,0.00,,,0.00,WUHU216HW,2013-01-29 00:01:00,
2013-01-28 19:05:00,47.5,41.0,30.20,North,0,0.0,0.0,78,0.00,,,0.00,WUHU216HW,2013-01-29 00:05:00,
2013-01-28 19:31:00,46.3,40.1,30.20,North,0,0.0,0.0,79,0.00,,,0.00,WUHU216HW,2013-01-29 00:31:00,
2013-01-28 19:36:00,46.3,40.1,30.20,North,0,0.0,0.0,79,0.00,,,0.00,WUHU216HW,2013-01-29 00:36:00,
2013-01-28 19:59:00,45.4,39.9,30.20,North,0,0.0,0.0,81,0.00,,,0.00,WUHU216HW,2013-01-29 00:59:00,
2013-01-28 20:00:00,45.4,39.9,30.20,North,0,0.0,0.0,81,0.00,,,0.00,WUHU216HW,2013-01-29 01:00:00,
2013-01-28 20:05:00,45.4,39.9,30.20,North,0,0.0,0.0,81,0.00,,,0.00,WUHU216HW,2013-01-29 01:05:00,
2013-01-28 20:29:00,44.3,38.8,30.20,North,0,0.0,0.0,81,0.00,,,0.00,WUHU216HW,2013-01-29 01:29:00,
2013-01-28 20:30:00,44.3,38.8,30.20,North,0,0.0,0.0,81,0.00,,,0.00,WUHU216HW,2013-01-29 01:30:00,
2013-01-28 20:35:00,44.3,38.8,30.20,North,0,0.0,0.0,81,0.00,,,0.00,WUHU216HW,2013-01-29 01:35:00,
2013-01-28 21:00:00,43.2,39.0,30.19,North,0,0.0,0.0,85,0.00,,,0.00,WUHU216HW,2013-01-29 02:00:00,
2013-01-28 21:05:00,43.2,39.0,30.19,North,0,0.0,0.0,85,0.00,,,0.00,WUHU216HW,2013-01-29 02:05:00,
2013-01-28 21:29:00,42.5,38.0,30.19,North,0,0.0,0.0,84,0.00,,,0.00,WUHU216HW,2013-01-29 02:29:00,
2013-01-28 21:30:00,42.5,38.0,30.19,North,0,0.0,0.0,84,0.00,,,0.00,WUHU216HW,2013-01-29 02:30:00,
2013-01-28 21:35:00,42.5,38.0,30.19,North,0,0.0,0.0,84,0.00,,,0.00,WUHU216HW,2013-01-29 02:35:00,
2013-01-28 21:59:00,42.3,38.1,30.19,North,0,0.0,0.0,85,0.00,,,0.00,WUHU216HW,2013-01-29 02:59:00,
2013-01-28 22:00:00,42.3,38.1,30.19,North,0,0.0,0.0,85,0.00,,,0.00,WUHU216HW,2013-01-29 03:00:00,
2013-01-28 22:05:00,42.3,38.1,30.19,North,0,0.0,0.0,85,0.00,,,0.00,WUHU216HW,2013-01-29 03:05:00,
2013-01-28 22:29:00,41.9,37.7,30.19,North,0,0.0,0.0,85,0.00,,,0.00,WUHU216HW,2013-01-29 03:29:00,
2013-01-28 22:30:00,41.9,37.7,30.19,North,0,0.0,0.0,85,0.00,,,0.00,WUHU216HW,2013-01-29 03:30:00,
2013-01-28 22:35:00,41.9,37.7,30.19,North,0,0.0,0.0,85,0.00,,,0.00,WUHU216HW,2013-01-29 03:35:00,
2013-01-28 23:00:00,41.0,36.2,30.18,North,0,0.0,0.0,83,0.00,,,0.00,WUHU216HW,2013-01-29 04:00:00,
2013-01-28 23:05:00,41.0,36.2,30.18,North,0,0.0,0.0,83,0.00,,,0.00,WUHU216HW,2013-01-29 04:05:00,
2013-01-28 23:29:00,40.9,36.4,30.19,North,0,0.0,0.0,84,0.00,,,0.00,WUHU216HW,2013-01-29 04:29:00,
2013-01-28 23:30:00,40.9,36.4,30.19,North,0,0.0,0.0,84,0.00,,,0.00,WUHU216HW,2013-01-29 04:30:00,
2013-01-28 23:35:00,40.9,36.4,30.19,North,0,0.0,0.0,84,0.00,,,0.00,WUHU216HW,2013-01-29 04:35:00,
2013-01-28 23:59:00,40.5,36.3,30.18,North,0,0.0,0.0,85,0.00,,,0.00,WUHU216HW,2013-01-29 04:59:00,